createdAt,value
2022-11-06T00:00:34.526Z,3.47
2022-11-06T00:01:36.650Z,3.80
2022-11-06T00:02:40.065Z,3.93
2022-11-06T00:03:42.616Z,3.10
2022-11-06T00:04:45.628Z,3.70
2022-11-06T00:06:06.158Z,3.20
2022-11-06T00:07:08.514Z,3.43
2022-11-06T00:08:11.046Z,3.37
2022-11-06T00:09:15.539Z,3.37
2022-11-06T00:10:18.071Z,3.55
2022-11-06T00:11:21.240Z,3.50
2022-11-06T00:12:23.347Z,4.00
2022-11-06T00:13:26.425Z,3.60
2022-11-06T00:14:29.451Z,3.50
2022-11-06T00:15:33.135Z,3.73
2022-11-06T00:16:38.443Z,3.30
2022-11-06T00:17:40.830Z,3.50
2022-11-06T00:18:43.902Z,3.47
2022-11-06T00:19:45.947Z,3.30
2022-11-06T00:20:48.931Z,3.70
2022-11-06T00:21:51.952Z,3.43
2022-11-06T00:22:54.001Z,3.30
2022-11-06T00:23:58.308Z,3.78
2022-11-06T00:25:00.841Z,3.70
2022-11-06T00:26:07.721Z,3.20
2022-11-06T00:27:09.766Z,3.43
2022-11-06T00:28:13.072Z,3.30
2022-11-06T00:29:16.569Z,3.20
2022-11-06T00:30:20.549Z,3.30
2022-11-06T00:31:26.506Z,3.50
2022-11-06T00:32:28.750Z,3.40
2022-11-06T00:33:32.309Z,3.10
2022-11-06T00:34:34.331Z,3.37
2022-11-06T00:35:39.193Z,3.10
2022-11-06T00:36:41.289Z,3.33
2022-11-06T00:37:44.368Z,3.22
2022-11-06T00:38:46.923Z,3.10
2022-11-06T00:39:49.973Z,3.07
2022-11-06T00:40:52.067Z,2.80
2022-11-06T00:41:55.121Z,3.27
2022-11-06T00:42:57.764Z,3.13
2022-11-06T00:44:02.302Z,3.67
2022-11-06T00:45:05.085Z,2.67
2022-11-06T00:46:10.537Z,3.00
2022-11-06T00:47:13.902Z,2.80
2022-11-06T00:48:16.904Z,3.00
2022-11-06T00:49:18.969Z,3.10
2022-11-06T00:50:26.048Z,3.08
2022-11-06T00:51:29.503Z,3.60
2022-11-06T00:52:32.566Z,3.27
2022-11-06T00:53:35.116Z,2.90
2022-11-06T00:54:38.256Z,3.13
2022-11-06T00:55:40.352Z,3.05
2022-11-06T00:56:43.405Z,3.10
2022-11-06T00:57:45.543Z,3.20
2022-11-06T00:58:49.297Z,3.03
2022-11-06T00:59:52.358Z,2.90
2022-11-06T01:00:54.373Z,3.33
2022-11-06T01:01:57.482Z,3.33
2022-11-06T01:03:01.098Z,3.20
2022-11-06T01:04:06.234Z,3.17
2022-11-06T01:05:08.545Z,2.95
2022-11-06T01:06:13.281Z,3.15
2022-11-06T01:07:16.342Z,3.05
2022-11-06T01:08:18.360Z,3.13
2022-11-06T01:09:23.953Z,3.13
2022-11-06T01:10:27.018Z,3.17
2022-11-06T01:11:52.534Z,3.23
2022-11-06T01:12:55.349Z,2.80
2022-11-06T01:13:58.930Z,2.67
2022-11-06T01:15:02.373Z,2.83
2022-11-06T01:16:06.696Z,3.00
2022-11-06T01:17:09.708Z,3.42
2022-11-06T01:18:13.478Z,3.35
2022-11-06T01:19:18.228Z,3.38
2022-11-06T01:20:20.325Z,2.80
2022-11-06T01:21:25.861Z,3.40
2022-11-06T01:22:28.965Z,3.13
2022-11-06T01:23:31.011Z,3.50
2022-11-06T01:24:34.909Z,3.20
2022-11-06T01:25:37.153Z,3.08
2022-11-06T01:26:53.272Z,2.83
2022-11-06T01:28:03.189Z,3.00
2022-11-06T01:29:06.559Z,2.97
2022-11-06T01:30:10.722Z,3.00
2022-11-06T01:31:14.785Z,3.00
2022-11-06T01:32:17.871Z,2.80
2022-11-06T01:33:21.505Z,3.00
2022-11-06T01:34:24.986Z,3.05
2022-11-06T01:35:26.998Z,3.30
2022-11-06T01:36:31.055Z,3.03
2022-11-06T01:37:34.102Z,3.25
2022-11-06T01:38:36.168Z,3.40
2022-11-06T01:39:39.176Z,2.75
2022-11-06T01:40:42.081Z,2.92
2022-11-06T01:41:47.160Z,2.60
2022-11-06T01:42:49.212Z,2.83
2022-11-06T01:43:54.162Z,2.93
2022-11-06T01:45:21.158Z,2.92
2022-11-06T01:46:26.352Z,3.22
2022-11-06T01:47:29.478Z,3.05
2022-11-06T01:48:33.913Z,3.10
2022-11-06T01:49:38.288Z,2.97
2022-11-06T01:50:43.713Z,2.72
2022-11-06T01:51:50.794Z,2.75
2022-11-06T01:52:54.037Z,3.10
2022-11-06T01:53:57.051Z,2.85
2022-11-06T01:55:07.748Z,2.80
2022-11-06T01:56:13.351Z,3.10
2022-11-06T01:57:15.649Z,3.10
2022-11-06T01:58:21.583Z,2.90
2022-11-06T01:59:27.620Z,3.10
2022-11-06T02:00:31.135Z,3.22
2022-11-06T02:01:33.747Z,2.83
2022-11-06T02:02:38.899Z,2.97
2022-11-06T02:03:57.637Z,3.00
2022-11-06T02:04:59.716Z,3.00
2022-11-06T02:06:05.000Z,2.90
2022-11-06T02:07:07.924Z,3.00
2022-11-06T02:08:15.848Z,2.70
2022-11-06T02:09:18.908Z,2.90
2022-11-06T02:10:22.032Z,3.20
2022-11-06T02:11:25.293Z,3.03
2022-11-06T02:12:41.189Z,3.25
2022-11-06T02:13:53.956Z,3.08
2022-11-06T02:15:04.509Z,3.08
2022-11-06T02:16:17.475Z,2.95
2022-11-06T02:17:29.324Z,2.90
2022-11-06T02:18:51.690Z,2.60
2022-11-06T02:20:02.320Z,3.00
2022-11-06T02:21:25.834Z,3.30
2022-11-06T02:22:48.697Z,2.90
2022-11-06T02:24:17.688Z,3.20
2022-11-06T02:25:27.891Z,2.88
2022-11-06T02:26:51.587Z,2.80
2022-11-06T02:28:03.252Z,3.00
2022-11-06T02:29:09.800Z,3.20
2022-11-06T02:30:14.831Z,2.58
2022-11-06T02:31:22.624Z,3.10
2022-11-06T02:32:31.494Z,3.15
2022-11-06T02:33:36.752Z,3.15
2022-11-06T02:34:42.540Z,2.70
2022-11-06T02:35:49.099Z,2.63
2022-11-06T02:36:56.806Z,2.78
2022-11-06T02:38:04.066Z,3.17
2022-11-06T02:39:12.586Z,2.60
2022-11-06T02:40:16.649Z,2.70
2022-11-06T02:41:23.254Z,2.72
2022-11-06T02:42:29.936Z,2.90
2022-11-06T02:43:38.481Z,3.10
2022-11-06T02:44:42.148Z,2.90
2022-11-06T02:45:49.985Z,3.00
2022-11-06T02:46:55.023Z,2.90
2022-11-06T02:47:59.364Z,2.90
2022-11-06T02:49:06.832Z,2.53
2022-11-06T02:50:13.286Z,2.30
2022-11-06T02:51:19.796Z,3.30
2022-11-06T02:52:25.447Z,2.80
2022-11-06T02:53:28.978Z,3.20
2022-11-06T02:54:34.732Z,2.53
2022-11-06T02:55:41.363Z,2.95
2022-11-06T02:56:46.085Z,2.65
2022-11-06T02:57:55.746Z,2.60
2022-11-06T02:59:03.061Z,2.78
2022-11-06T03:00:09.160Z,2.50
2022-11-06T03:01:15.742Z,2.75
2022-11-06T03:02:24.330Z,2.33
2022-11-06T03:03:29.715Z,2.70
2022-11-06T03:04:38.752Z,2.60
2022-11-06T03:05:47.124Z,2.75
2022-11-06T03:06:54.514Z,2.47
2022-11-06T03:08:02.734Z,2.40
2022-11-06T03:09:10.165Z,2.47
2022-11-06T03:10:12.535Z,2.85
2022-11-06T03:11:19.758Z,2.30
2022-11-06T03:12:25.537Z,2.55
2022-11-06T03:13:41.788Z,2.85
2022-11-06T03:14:51.113Z,3.05
2022-11-06T03:16:04.917Z,3.00
2022-11-06T03:17:11.862Z,2.88
2022-11-06T03:18:19.264Z,2.80
2022-11-06T03:19:29.676Z,2.63
2022-11-06T03:20:38.307Z,3.03
2022-11-06T03:21:53.933Z,2.55
2022-11-06T03:23:03.068Z,2.83
2022-11-06T03:24:13.665Z,2.85
2022-11-06T03:25:20.476Z,2.60
2022-11-06T03:26:30.686Z,2.40
2022-11-06T03:27:37.029Z,2.55
2022-11-06T03:28:48.910Z,2.80
2022-11-06T03:29:58.322Z,2.53
2022-11-06T03:31:05.568Z,2.60
2022-11-06T03:32:15.553Z,2.60
2022-11-06T03:33:22.680Z,2.40
2022-11-06T03:34:31.440Z,2.65
2022-11-06T03:35:40.700Z,2.55
2022-11-06T03:36:45.189Z,3.13
2022-11-06T03:37:53.337Z,2.75
2022-11-06T03:38:59.143Z,2.58
2022-11-06T03:40:06.992Z,3.45
2022-11-06T03:41:13.797Z,2.60
2022-11-06T03:42:20.344Z,2.33
2022-11-06T03:43:27.481Z,2.58
2022-11-06T03:44:33.593Z,2.70
2022-11-06T03:45:40.357Z,2.75
2022-11-06T03:46:45.299Z,2.58
2022-11-06T03:47:53.368Z,2.92
2022-11-06T03:49:00.160Z,2.83
2022-11-06T03:50:08.882Z,2.50
2022-11-06T03:51:17.407Z,2.40
2022-11-06T03:52:26.362Z,2.60
2022-11-06T03:53:36.115Z,2.72
2022-11-06T03:54:41.642Z,2.80
2022-11-06T03:55:48.972Z,2.92
2022-11-06T03:56:57.036Z,2.63
2022-11-06T03:58:05.022Z,2.67
2022-11-06T03:59:09.400Z,2.65
2022-11-06T04:00:17.113Z,2.58
2022-11-06T04:01:23.492Z,2.80
2022-11-06T04:02:30.668Z,3.22
2022-11-06T04:03:37.957Z,2.83
2022-11-06T04:04:48.583Z,2.50
2022-11-06T04:05:56.277Z,2.72
2022-11-06T04:07:04.053Z,2.80
2022-11-06T04:08:26.368Z,2.65
2022-11-06T04:09:50.054Z,2.92
2022-11-06T04:11:15.022Z,2.50
2022-11-06T04:12:40.005Z,2.83
2022-11-06T04:14:00.866Z,2.85
2022-11-06T04:15:03.705Z,2.58
2022-11-06T04:16:10.317Z,2.83
2022-11-06T04:17:14.343Z,2.60
2022-11-06T04:18:19.836Z,2.65
2022-11-06T04:19:23.168Z,2.33
2022-11-06T04:20:56.094Z,3.08
2022-11-06T04:22:13.935Z,2.78
2022-11-06T04:23:25.341Z,3.05
2022-11-06T04:24:58.561Z,2.38
2022-11-06T04:26:36.590Z,2.70
2022-11-06T04:27:53.838Z,2.70
2022-11-06T04:29:04.681Z,2.60
2022-11-06T04:30:09.435Z,2.90
2022-11-06T04:31:25.033Z,2.55
2022-11-06T04:32:36.046Z,2.22
2022-11-06T04:33:46.765Z,2.78
2022-11-06T04:34:55.428Z,2.25
2022-11-06T04:36:05.523Z,2.83
2022-11-06T04:37:15.962Z,2.60
2022-11-06T04:38:26.943Z,2.58
2022-11-06T04:39:35.490Z,2.63
2022-11-06T04:40:47.159Z,2.50
2022-11-06T04:41:59.448Z,2.38
2022-11-06T04:43:06.268Z,2.70
2022-11-06T04:44:14.664Z,2.53
2022-11-06T04:45:22.271Z,2.45
2022-11-06T04:46:30.992Z,2.50
2022-11-06T04:47:33.993Z,2.10
2022-11-06T04:48:39.514Z,2.40
2022-11-06T04:49:43.826Z,2.13
2022-11-06T04:50:50.866Z,2.00
2022-11-06T04:51:53.657Z,2.33
2022-11-06T04:52:57.329Z,2.53
2022-11-06T04:54:00.030Z,2.60
2022-11-06T04:55:03.331Z,2.50
2022-11-06T04:56:10.348Z,2.70
2022-11-06T04:57:13.479Z,2.42
2022-11-06T04:58:16.176Z,2.45
2022-11-06T04:59:19.961Z,2.38
2022-11-06T05:00:22.184Z,2.17
2022-11-06T05:01:26.840Z,2.10
2022-11-06T05:02:29.216Z,2.10
2022-11-06T05:03:32.567Z,2.25
2022-11-06T05:04:34.665Z,2.47
2022-11-06T05:05:37.704Z,2.25
2022-11-06T05:06:39.763Z,2.20
2022-11-06T05:07:42.819Z,2.58
2022-11-06T05:08:44.931Z,2.58
2022-11-06T05:09:47.939Z,2.35
2022-11-06T05:10:49.955Z,2.28
2022-11-06T05:11:53.057Z,2.28
2022-11-06T05:12:55.111Z,2.08
2022-11-06T05:13:58.190Z,2.47
2022-11-06T05:15:00.222Z,2.33
2022-11-06T05:16:03.284Z,2.28
2022-11-06T05:17:07.337Z,2.10
2022-11-06T05:18:10.993Z,2.63
2022-11-06T05:19:14.249Z,2.15
2022-11-06T05:20:16.470Z,2.20
2022-11-06T05:21:37.033Z,1.95
2022-11-06T05:23:00.548Z,2.50
2022-11-06T05:24:03.075Z,2.40
2022-11-06T05:25:06.622Z,2.33
2022-11-06T05:26:08.967Z,2.50
2022-11-06T05:27:12.000Z,2.70
2022-11-06T05:28:15.432Z,2.20
2022-11-06T05:29:17.816Z,2.47
2022-11-06T05:30:20.850Z,2.80
2022-11-06T05:31:23.790Z,2.80
2022-11-06T05:32:30.904Z,2.70
2022-11-06T05:33:33.423Z,2.35
2022-11-06T05:34:36.470Z,2.15
2022-11-06T05:35:38.544Z,2.35
2022-11-06T05:36:41.700Z,2.40
2022-11-06T05:37:44.053Z,2.90
2022-11-06T05:38:47.197Z,2.70
2022-11-06T05:39:49.267Z,2.90
2022-11-06T05:40:52.258Z,2.60
2022-11-06T05:41:54.301Z,2.53
2022-11-06T05:42:57.429Z,2.60
2022-11-06T05:43:59.571Z,2.95
2022-11-06T05:45:02.585Z,2.58
2022-11-06T05:46:05.200Z,2.67
2022-11-06T05:47:08.218Z,2.50
2022-11-06T05:48:11.898Z,2.70
2022-11-06T05:49:15.129Z,3.13
2022-11-06T05:50:18.302Z,2.90
2022-11-06T05:51:20.372Z,2.88
2022-11-06T05:52:23.460Z,2.95
2022-11-06T05:53:25.540Z,3.15
2022-11-06T05:54:28.592Z,2.55
2022-11-06T05:55:30.673Z,2.85
2022-11-06T05:56:33.735Z,3.60
2022-11-06T05:57:35.907Z,2.78
2022-11-06T05:58:39.022Z,3.35
2022-11-06T05:59:42.006Z,3.22
2022-11-06T06:00:45.035Z,2.80
2022-11-06T06:01:47.163Z,3.83
2022-11-06T06:02:50.570Z,3.13
2022-11-06T06:03:53.998Z,3.20
2022-11-06T06:04:57.012Z,2.90
2022-11-06T06:05:59.066Z,3.20
2022-11-06T06:07:02.115Z,3.22
2022-11-06T06:08:04.815Z,3.03
2022-11-06T06:09:08.024Z,3.28
2022-11-06T06:10:11.426Z,3.03
2022-11-06T06:11:14.446Z,3.30
2022-11-06T06:12:16.538Z,3.20
2022-11-06T06:13:19.583Z,2.80
2022-11-06T06:14:22.937Z,3.17
2022-11-06T06:15:25.019Z,3.15
2022-11-06T06:16:28.222Z,2.80
2022-11-06T06:17:31.285Z,3.20
2022-11-06T06:18:33.404Z,2.35
2022-11-06T06:19:37.779Z,2.83
2022-11-06T06:20:40.029Z,3.00
2022-11-06T06:21:43.159Z,2.80
2022-11-06T06:22:54.402Z,3.00
2022-11-06T06:23:56.448Z,3.10
2022-11-06T06:24:59.657Z,2.80
2022-11-06T06:26:01.790Z,2.47
2022-11-06T06:27:05.043Z,2.63
2022-11-06T06:28:07.070Z,2.85
2022-11-06T06:29:10.070Z,2.55
2022-11-06T06:30:12.789Z,2.85
2022-11-06T06:31:16.091Z,2.60
2022-11-06T06:32:18.146Z,2.70
2022-11-06T06:33:21.193Z,2.65
2022-11-06T06:34:24.229Z,2.88
2022-11-06T06:35:27.668Z,2.97
2022-11-06T06:36:30.705Z,2.50
2022-11-06T06:37:32.756Z,2.80
2022-11-06T06:38:35.851Z,2.65
2022-11-06T06:39:37.879Z,2.67
2022-11-06T06:40:40.992Z,2.47
2022-11-06T06:41:44.056Z,2.55
2022-11-06T06:42:46.157Z,3.13
2022-11-06T06:43:50.155Z,2.92
2022-11-06T06:44:52.161Z,2.70
2022-11-06T06:45:55.175Z,2.72
2022-11-06T06:46:58.405Z,2.88
2022-11-06T06:48:03.055Z,2.40
2022-11-06T06:49:06.214Z,2.58
2022-11-06T06:50:09.474Z,2.78
2022-11-06T06:51:13.845Z,2.78
2022-11-06T06:52:15.892Z,3.03
2022-11-06T06:53:19.057Z,2.92
2022-11-06T06:54:22.117Z,3.03
2022-11-06T06:55:24.860Z,2.83
2022-11-06T06:56:27.892Z,2.20
2022-11-06T06:57:30.894Z,2.75
2022-11-06T06:58:33.001Z,3.10
2022-11-06T06:59:37.147Z,3.25
2022-11-06T07:00:39.340Z,3.00
2022-11-06T07:01:42.449Z,3.03
2022-11-06T07:02:44.685Z,2.70
2022-11-06T07:03:47.814Z,2.65
2022-11-06T07:04:49.890Z,3.08
2022-11-06T07:05:53.333Z,2.70
2022-11-06T07:06:57.714Z,2.88
2022-11-06T07:07:59.752Z,2.77
2022-11-06T07:09:02.993Z,2.97
2022-11-06T07:10:06.079Z,3.30
2022-11-06T07:11:11.385Z,2.83
2022-11-06T07:12:14.409Z,3.00
2022-11-06T07:13:16.576Z,2.85
2022-11-06T07:14:19.694Z,2.40
2022-11-06T07:15:21.778Z,3.10
2022-11-06T07:16:25.311Z,3.05
2022-11-06T07:17:28.754Z,2.90
2022-11-06T07:18:30.810Z,2.55
2022-11-06T07:19:33.849Z,2.70
2022-11-06T07:20:36.071Z,2.88
2022-11-06T07:21:39.123Z,2.80
2022-11-06T07:22:42.587Z,2.70
2022-11-06T07:23:46.145Z,2.63
2022-11-06T07:24:48.153Z,2.83
2022-11-06T07:25:53.907Z,3.03
2022-11-06T07:26:56.012Z,2.97
2022-11-06T07:28:02.840Z,3.30
2022-11-06T07:29:06.090Z,2.90
2022-11-06T07:30:09.196Z,2.77
2022-11-06T07:31:12.716Z,3.00
2022-11-06T07:32:14.757Z,2.70
2022-11-06T07:33:17.812Z,2.80
2022-11-06T07:34:19.861Z,2.70
2022-11-06T07:35:22.921Z,2.97
2022-11-06T07:36:24.949Z,2.77
2022-11-06T07:37:27.970Z,2.90
2022-11-06T07:38:34.189Z,2.57
2022-11-06T07:39:36.352Z,2.73
2022-11-06T07:40:39.366Z,3.27
2022-11-06T07:41:41.394Z,3.40
2022-11-06T07:42:44.439Z,3.40
2022-11-06T07:43:50.661Z,3.87
2022-11-06T07:44:55.395Z,4.50
2022-11-06T07:46:00.666Z,4.87
2022-11-06T07:47:04.742Z,5.57
2022-11-06T07:48:07.076Z,6.40
2022-11-06T07:49:10.796Z,6.97
2022-11-06T07:50:12.878Z,6.80
2022-11-06T07:51:15.859Z,7.50
2022-11-06T07:52:17.892Z,7.37
2022-11-06T07:53:20.949Z,6.63
2022-11-06T07:54:24.433Z,6.80
2022-11-06T07:55:27.875Z,7.70
2022-11-06T07:56:29.929Z,7.53
2022-11-06T07:57:36.963Z,6.80
2022-11-06T07:58:39.536Z,6.53
2022-11-06T07:59:42.580Z,7.00
2022-11-06T08:00:47.739Z,7.37
2022-11-06T08:01:50.900Z,7.07
2022-11-06T08:02:53.812Z,6.40
2022-11-06T08:03:57.065Z,6.30
2022-11-06T08:04:59.101Z,6.60
2022-11-06T08:06:05.407Z,7.30
2022-11-06T08:07:07.506Z,6.90
2022-11-06T08:08:11.515Z,6.53
2022-11-06T08:09:13.904Z,6.00
2022-11-06T08:10:18.430Z,6.50
2022-11-06T08:11:21.537Z,6.23
2022-11-06T08:12:23.551Z,6.70
2022-11-06T08:13:27.012Z,7.10
2022-11-06T08:14:30.118Z,5.93
2022-11-06T08:15:32.161Z,6.23
2022-11-06T08:16:35.193Z,5.70
2022-11-06T08:17:37.591Z,6.20
2022-11-06T08:18:41.131Z,5.30
2022-11-06T08:19:43.234Z,6.00
2022-11-06T08:20:46.273Z,5.40
2022-11-06T08:21:49.272Z,5.90
2022-11-06T08:22:51.363Z,5.90
2022-11-06T08:23:54.416Z,6.30
2022-11-06T08:24:56.547Z,5.87
2022-11-06T08:26:03.525Z,5.73
2022-11-06T08:27:06.547Z,6.30
2022-11-06T08:28:10.993Z,5.30
2022-11-06T08:29:14.231Z,5.70
2022-11-06T08:30:16.493Z,5.47
2022-11-06T08:31:20.988Z,5.80
2022-11-06T08:32:23.044Z,5.83
2022-11-06T08:33:26.705Z,6.00
2022-11-06T08:34:28.736Z,5.53
2022-11-06T08:35:31.911Z,6.03
2022-11-06T08:36:37.686Z,6.13
2022-11-06T08:37:40.993Z,6.23
2022-11-06T08:38:44.231Z,6.70
2022-11-06T08:39:46.383Z,5.93
2022-11-06T08:40:53.379Z,6.47
2022-11-06T08:41:57.355Z,6.57
2022-11-06T08:43:01.547Z,5.73
2022-11-06T08:44:03.746Z,5.90
2022-11-06T08:45:07.850Z,5.63
2022-11-06T08:46:11.770Z,5.80
2022-11-06T08:47:15.086Z,6.00
2022-11-06T08:48:17.305Z,5.40
2022-11-06T08:49:20.763Z,5.17
2022-11-06T08:50:23.202Z,5.10
2022-11-06T08:51:26.352Z,5.80
2022-11-06T08:52:33.746Z,6.03
2022-11-06T08:53:37.370Z,5.30
2022-11-06T08:54:39.519Z,5.80
2022-11-06T08:55:42.550Z,6.27
2022-11-06T08:56:44.628Z,5.23
2022-11-06T08:57:48.983Z,5.57
2022-11-06T08:58:55.549Z,5.00
2022-11-06T08:59:58.978Z,5.00
2022-11-06T09:01:01.140Z,5.27
2022-11-06T09:02:04.412Z,5.23
2022-11-06T09:03:09.885Z,5.40
2022-11-06T09:04:12.938Z,5.00
2022-11-06T09:05:16.161Z,5.20
2022-11-06T09:06:19.363Z,5.60
2022-11-06T09:07:21.460Z,5.33
2022-11-06T09:08:24.617Z,4.97
2022-11-06T09:09:31.935Z,5.73
2022-11-06T09:10:35.749Z,4.70
2022-11-06T09:11:37.810Z,5.13
2022-11-06T09:12:40.904Z,4.60
2022-11-06T09:13:45.385Z,4.60
2022-11-06T09:14:47.488Z,4.90
2022-11-06T09:15:50.508Z,4.60
2022-11-06T09:16:52.843Z,4.80
2022-11-06T09:17:55.932Z,4.77
2022-11-06T09:18:58.009Z,4.60
2022-11-06T09:20:01.009Z,4.27
2022-11-06T09:21:04.428Z,3.57
2022-11-06T09:22:09.010Z,3.53
2022-11-06T09:23:16.110Z,3.60
2022-11-06T09:24:27.541Z,3.27
2022-11-06T09:25:41.466Z,3.73
2022-11-06T09:26:43.507Z,3.43
2022-11-06T09:27:49.759Z,3.00
2022-11-06T09:28:55.607Z,3.30
2022-11-06T09:29:57.748Z,3.20
2022-11-06T09:31:02.306Z,2.90
2022-11-06T09:32:04.812Z,3.13
2022-11-06T09:33:12.353Z,3.63
2022-11-06T09:34:16.628Z,3.33
2022-11-06T09:35:19.808Z,3.57
2022-11-06T09:36:23.251Z,3.23
2022-11-06T09:37:25.289Z,3.53
2022-11-06T09:38:28.322Z,3.50
2022-11-06T09:39:30.361Z,3.70
2022-11-06T09:40:36.383Z,3.63
2022-11-06T09:41:50.714Z,3.73
2022-11-06T09:43:08.266Z,3.40
2022-11-06T09:44:29.867Z,3.70
2022-11-06T09:45:34.502Z,3.80
2022-11-06T09:46:42.846Z,3.60
2022-11-06T09:47:49.991Z,3.17
2022-11-06T09:48:59.719Z,3.03
2022-11-06T09:50:05.087Z,2.67
2022-11-06T09:51:18.557Z,3.10
2022-11-06T09:52:34.005Z,2.83
2022-11-06T09:53:41.758Z,2.40
2022-11-06T09:54:55.987Z,2.73
2022-11-06T09:56:01.901Z,2.20
2022-11-06T09:57:10.987Z,2.30
2022-11-06T09:58:17.162Z,2.50
2022-11-06T09:59:21.265Z,2.00
2022-11-06T10:00:24.682Z,2.33
2022-11-06T10:01:34.280Z,2.03
2022-11-06T10:02:43.727Z,2.10
2022-11-06T10:03:51.657Z,2.30
2022-11-06T10:05:01.637Z,2.00
2022-11-06T10:06:04.189Z,2.37
2022-11-06T10:07:18.925Z,1.87
2022-11-06T10:08:24.031Z,2.00
2022-11-06T10:09:26.116Z,2.10
2022-11-06T10:10:37.331Z,2.13
2022-11-06T10:11:55.504Z,1.87
2022-11-06T10:13:24.561Z,2.33
2022-11-06T10:14:46.393Z,2.10
2022-11-06T10:15:56.734Z,2.30
2022-11-06T10:17:08.646Z,2.67
2022-11-06T10:18:23.024Z,2.70
2022-11-06T10:19:34.146Z,2.50
2022-11-06T10:20:44.480Z,2.70
2022-11-06T10:21:49.642Z,2.63
2022-11-06T10:23:03.588Z,2.60
2022-11-06T10:24:16.104Z,2.37
2022-11-06T10:25:20.847Z,2.70
2022-11-06T10:26:33.563Z,2.63
2022-11-06T10:27:41.676Z,2.97
2022-11-06T10:28:58.966Z,3.33
2022-11-06T10:30:07.695Z,2.87
2022-11-06T10:31:16.687Z,3.03
2022-11-06T10:33:09.344Z,3.27
2022-11-06T10:34:17.197Z,3.10
2022-11-06T10:35:24.029Z,3.30
2022-11-06T10:36:31.577Z,3.30
2022-11-06T10:37:40.226Z,3.03
2022-11-06T10:38:47.141Z,3.30
2022-11-06T10:39:50.633Z,3.53
2022-11-06T10:40:55.000Z,2.83
2022-11-06T10:42:03.644Z,3.43
2022-11-06T10:43:18.263Z,3.17
2022-11-06T10:44:24.972Z,3.03
2022-11-06T10:45:30.467Z,2.83
2022-11-06T10:46:37.817Z,3.07
2022-11-06T10:47:46.054Z,3.60
2022-11-06T10:48:52.842Z,3.33
2022-11-06T10:49:58.939Z,3.23
2022-11-06T10:51:16.832Z,3.23
2022-11-06T10:52:46.951Z,2.93
2022-11-06T10:54:02.894Z,3.00
2022-11-06T10:55:55.839Z,3.10
2022-11-06T10:57:14.234Z,3.17
2022-11-06T10:58:18.202Z,3.30
2022-11-06T10:59:21.622Z,2.87
2022-11-06T11:00:23.807Z,3.30
2022-11-06T11:01:28.282Z,3.20
2022-11-06T11:02:32.584Z,3.27
2022-11-06T11:03:37.673Z,3.00
2022-11-06T11:04:40.969Z,3.10
2022-11-06T11:05:45.471Z,3.20
2022-11-06T11:06:48.489Z,3.00
2022-11-06T11:07:52.655Z,3.27
2022-11-06T11:08:55.739Z,3.00
2022-11-06T11:09:57.789Z,2.67
2022-11-06T11:11:05.247Z,3.10
2022-11-06T11:12:22.016Z,3.43
2022-11-06T11:13:24.097Z,3.40
2022-11-06T11:14:29.443Z,3.10
2022-11-06T11:15:33.917Z,3.53
2022-11-06T11:16:39.828Z,3.47
2022-11-06T11:17:44.611Z,2.90
2022-11-06T11:18:48.237Z,3.33
2022-11-06T11:19:51.397Z,2.80
2022-11-06T11:21:06.817Z,3.40
2022-11-06T11:22:19.977Z,3.17
2022-11-06T11:23:25.632Z,3.13
2022-11-06T11:24:29.334Z,3.00
2022-11-06T11:25:31.365Z,3.00
2022-11-06T11:26:36.866Z,3.43
2022-11-06T11:27:45.359Z,3.13
2022-11-06T11:28:53.179Z,3.13
2022-11-06T11:29:57.621Z,3.33
2022-11-06T11:31:06.937Z,3.20
2022-11-06T11:32:16.849Z,3.47
2022-11-06T11:33:21.645Z,3.33
2022-11-06T11:34:26.739Z,3.27
2022-11-06T11:35:31.651Z,3.17
2022-11-06T11:36:51.218Z,2.77
2022-11-06T11:38:06.544Z,3.37
2022-11-06T11:39:08.943Z,3.53
2022-11-06T11:40:31.156Z,3.40
2022-11-06T11:41:34.193Z,3.37
2022-11-06T11:42:37.310Z,3.20
2022-11-06T11:43:40.779Z,3.73
2022-11-06T11:44:43.889Z,3.20
2022-11-06T11:46:03.702Z,3.57
2022-11-06T11:47:23.709Z,3.50
2022-11-06T11:48:26.009Z,3.67
2022-11-06T11:49:31.852Z,3.60
2022-11-06T11:50:34.432Z,3.90
2022-11-06T11:51:39.504Z,4.10
2022-11-06T11:52:42.792Z,3.47
2022-11-06T11:53:46.220Z,3.50
2022-11-06T11:54:52.308Z,3.63
2022-11-06T11:55:54.391Z,3.17
2022-11-06T11:57:07.494Z,3.13
2022-11-06T11:58:22.275Z,3.33
2022-11-06T11:59:29.114Z,3.37
2022-11-06T12:00:31.210Z,3.67
2022-11-06T12:01:40.579Z,3.80
2022-11-06T12:02:46.706Z,3.67
2022-11-06T12:03:52.428Z,4.40
2022-11-06T12:04:59.539Z,3.93
2022-11-06T12:06:08.395Z,3.30
2022-11-06T12:07:26.332Z,3.30
2022-11-06T12:08:28.427Z,3.27
2022-11-06T12:09:35.449Z,3.60
2022-11-06T12:10:39.904Z,3.60
2022-11-06T12:11:44.816Z,3.30
2022-11-06T12:12:51.046Z,3.70
2022-11-06T12:14:20.041Z,3.60
2022-11-06T12:15:28.573Z,4.17
2022-11-06T12:16:30.665Z,3.83
2022-11-06T12:17:37.137Z,3.73
2022-11-06T12:18:44.061Z,3.67
2022-11-06T12:19:53.088Z,3.70
2022-11-06T12:20:59.662Z,3.80
2022-11-06T12:22:06.712Z,3.50
2022-11-06T12:23:17.272Z,3.73
2022-11-06T12:24:23.214Z,3.63
2022-11-06T12:25:32.480Z,4.50
2022-11-06T12:26:38.744Z,3.67
2022-11-06T12:27:45.220Z,4.13
2022-11-06T12:28:49.767Z,4.17
2022-11-06T12:29:58.071Z,4.20
2022-11-06T12:31:07.043Z,4.50
2022-11-06T12:32:19.696Z,3.93
2022-11-06T12:33:59.626Z,4.00
2022-11-06T12:34:55.731Z,3.97
2022-11-06T12:36:02.216Z,3.97
2022-11-06T12:37:19.624Z,4.27
2022-11-06T12:38:30.804Z,4.00
2022-11-06T12:39:38.131Z,4.20
2022-11-06T12:40:41.658Z,3.97
2022-11-06T12:41:48.217Z,3.97
2022-11-06T12:43:01.649Z,4.20
2022-11-06T12:44:10.506Z,3.97
2022-11-06T12:45:13.235Z,4.13
2022-11-06T12:46:33.722Z,4.33
2022-11-06T12:47:46.464Z,4.60
2022-11-06T12:49:16.103Z,3.83
2022-11-06T12:50:29.089Z,4.20
2022-11-06T12:51:42.379Z,3.70
2022-11-06T12:53:00.865Z,4.00
2022-11-06T12:54:24.773Z,3.60
2022-11-06T12:55:32.640Z,3.97
2022-11-06T12:56:43.843Z,4.47
2022-11-06T12:58:03.844Z,4.33
2022-11-06T12:59:16.801Z,3.70
2022-11-06T13:00:22.773Z,3.87
2022-11-06T13:01:43.533Z,3.83
2022-11-06T13:03:14.780Z,3.90
2022-11-06T13:04:39.041Z,3.30
2022-11-06T13:05:53.929Z,3.80
2022-11-06T13:07:34.538Z,3.63
2022-11-06T13:08:46.623Z,3.90
2022-11-06T13:09:57.011Z,4.10
2022-11-06T13:11:09.028Z,3.67
2022-11-06T13:12:19.003Z,4.20
2022-11-06T13:13:41.391Z,4.23
2022-11-06T13:14:54.417Z,4.03
2022-11-06T13:16:04.607Z,3.60
2022-11-06T13:17:13.252Z,3.60
2022-11-06T13:18:21.924Z,3.93
2022-11-06T13:19:32.263Z,3.87
2022-11-06T13:20:44.744Z,4.20
2022-11-06T13:22:10.890Z,4.20
2022-11-06T13:23:22.914Z,5.13
2022-11-06T13:24:35.114Z,3.83
2022-11-06T13:25:47.828Z,3.80
2022-11-06T13:26:55.704Z,4.50
2022-11-06T13:28:03.037Z,3.87
2022-11-06T13:29:09.955Z,3.70
2022-11-06T13:30:17.031Z,3.80
2022-11-06T13:31:23.715Z,3.97
2022-11-06T13:32:27.050Z,3.83
2022-11-06T13:33:35.339Z,3.30
2022-11-06T13:34:41.499Z,3.43
2022-11-06T13:35:45.337Z,3.80
2022-11-06T13:36:49.129Z,3.33
2022-11-06T13:37:56.347Z,3.90
2022-11-06T13:39:07.762Z,3.70
2022-11-06T13:40:22.869Z,3.20
2022-11-06T13:41:29.369Z,3.90
2022-11-06T13:42:36.911Z,3.70
2022-11-06T13:43:44.794Z,3.83
2022-11-06T13:44:47.880Z,3.83
2022-11-06T13:45:57.900Z,3.50
2022-11-06T13:47:09.163Z,3.40
2022-11-06T13:48:26.516Z,3.47
2022-11-06T13:49:39.431Z,3.50
2022-11-06T13:50:50.508Z,3.60
2022-11-06T13:51:55.330Z,3.17
2022-11-06T13:53:06.617Z,3.50
2022-11-06T13:54:18.666Z,3.30
2022-11-06T13:55:26.206Z,3.83
2022-11-06T13:57:02.640Z,3.73
2022-11-06T13:58:20.939Z,4.03
2022-11-06T13:59:48.763Z,3.80
2022-11-06T14:01:02.926Z,3.70
2022-11-06T14:02:32.823Z,3.70
2022-11-06T14:04:05.694Z,3.87
2022-11-06T14:05:45.162Z,3.77
2022-11-06T14:06:52.428Z,4.00
2022-11-06T14:07:57.276Z,3.80
2022-11-06T14:09:06.211Z,3.40
2022-11-06T14:10:18.650Z,3.53
2022-11-06T14:11:27.151Z,3.87
2022-11-06T14:12:29.527Z,4.10
2022-11-06T14:13:34.931Z,3.87
2022-11-06T14:14:37.967Z,3.50
2022-11-06T14:15:41.994Z,3.60
2022-11-06T14:16:45.097Z,3.43
2022-11-06T14:17:55.757Z,4.13
2022-11-06T14:19:03.036Z,3.50
2022-11-06T14:20:27.036Z,3.47
2022-11-06T14:21:48.839Z,3.90
2022-11-06T14:22:51.893Z,3.83
2022-11-06T14:23:54.762Z,4.07
2022-11-06T14:25:02.007Z,3.87
2022-11-06T14:26:09.082Z,4.00
2022-11-06T14:27:14.756Z,4.03
2022-11-06T14:28:29.886Z,3.57
2022-11-06T14:29:57.636Z,3.60
2022-11-06T14:31:21.495Z,3.77
2022-11-06T14:32:42.530Z,3.43
2022-11-06T14:34:03.937Z,3.33
2022-11-06T14:35:49.514Z,3.23
2022-11-06T14:36:52.604Z,3.40
2022-11-06T14:38:15.659Z,3.50
2022-11-06T14:39:56.687Z,3.97
2022-11-06T14:41:00.641Z,3.80
2022-11-06T14:42:04.955Z,3.67
2022-11-06T14:43:18.633Z,3.77
2022-11-06T14:44:41.764Z,3.60
2022-11-06T14:45:51.286Z,3.33
2022-11-06T14:46:58.043Z,3.67
2022-11-06T14:48:01.360Z,3.60
2022-11-06T14:49:09.911Z,3.30
2022-11-06T14:50:27.113Z,3.70
2022-11-06T14:51:30.059Z,4.00
2022-11-06T14:52:43.639Z,4.27
2022-11-06T14:53:49.866Z,3.63